Time;durP1;ratioP1;P1;durP2;ratioP2;P2;SDS_P1;SDS_P2;PMS_P1;PMS_P2;Temp;Humidity;BMP_temperature;BMP_pressure;BME280_temperature;BME280_humidity;BME280_pressure;Samples;Min_cycle;Max_cycle;Signal;HPM_P1;HPM_P2
2022/04/03 00:00:16;;;;;;;478.40;254.70;;;;;;;2.47;45.20;101375.69;692443;28;46310;-67
2022/04/03 00:00:37;;;;;;;478.65;255.38;;;;;;;2.48;45.07;101372.06;692042;28;45747;-68
2022/04/03 00:00:58;;;;;;;478.20;255.43;;;;;;;2.46;45.18;101374.00;694061;28;23475;-68
2022/04/03 00:01:21;;;;;;;479.20;255.32;;;;;;;2.48;45.27;101377.41;692008;28;46504;-68
2022/04/03 00:01:42;;;;;;;481.27;262.92;;;;;;;2.51;44.93;101384.34;691499;28;45230;-68
2022/04/03 00:02:07;;;;;;;480.35;260.33;;;;;;;2.49;45.21;101383.56;694573;28;887;-68
2022/04/03 00:02:28;;;;;;;480.35;262.35;;;;;;;2.50;45.22;101387.97;689746;28;57212;-68
2022/04/03 00:02:49;;;;;;;477.65;257.88;;;;;;;2.49;45.05;101380.91;691573;28;21540;-68
2022/04/03 00:03:11;;;;;;;476.17;245.13;;;;;;;2.46;45.02;101384.66;689902;28;1708;-68
2022/04/03 00:03:35;;;;;;;475.70;244.15;;;;;;;2.46;45.07;101383.78;689730;28;14972;-68
2022/04/03 00:03:57;;;;;;;473.42;239.70;;;;;;;2.45;45.26;101377.63;689623;28;22394;-68
2022/04/03 00:04:18;;;;;;;476.10;251.82;;;;;;;2.46;45.23;101382.00;687655;28;30506;-68
2022/04/03 00:04:40;;;;;;;473.30;237.63;;;;;;;2.43;45.29;101374.22;690933;28;21576;-68
2022/04/03 00:05:01;;;;;;;476.08;247.52;;;;;;;2.47;45.28;101385.50;690584;28;44170;-68
2022/04/03 00:05:23;;;;;;;474.77;243.05;;;;;;;2.44;45.23;101378.56;693506;28;22413;-67
2022/04/03 00:05:44;;;;;;;475.27;242.02;;;;;;;2.44;45.43;101377.72;692661;28;46343;-68
2022/04/03 00:06:06;;;;;;;475.98;244.05;;;;;;;2.45;45.32;101376.78;692182;28;46344;-67
2022/04/03 00:06:27;;;;;;;476.10;249.88;;;;;;;2.44;45.33;101378.56;694082;28;22392;-67
2022/04/03 00:06:50;;;;;;;477.40;251.00;;;;;;;2.43;45.42;101378.69;692758;28;21506;-67
2022/04/03 00:07:11;;;;;;;477.92;254.85;;;;;;;2.42;45.43;101377.84;692465;28;70152;-68
2022/04/03 00:07:32;;;;;;;475.40;245.32;;;;;;;2.44;45.48;101385.72;693853;28;23424;-68
2022/04/03 00:07:54;;;;;;;473.35;236.32;;;;;;;2.44;45.32;101378.56;693783;28;22411;-68
2022/04/03 00:08:16;;;;;;;476.98;250.68;;;;;;;2.43;45.38;101374.22;692490;28;44357;-68
2022/04/03 00:08:37;;;;;;;478.50;253.35;;;;;;;2.44;45.32;101383.91;692995;28;46273;-68
2022/04/03 00:08:58;;;;;;;477.50;251.68;;;;;;;2.43;45.51;101374.22;693791;28;22203;-68
2022/04/03 00:09:19;;;;;;;476.27;246.93;;;;;;;2.44;45.32;101375.91;693325;28;21606;-68
2022/04/03 00:09:41;;;;;;;476.08;236.40;;;;;;;2.44;45.34;101380.38;692271;28;45546;-67
2022/04/03 00:10:03;;;;;;;476.52;243.90;;;;;;;2.44;45.45;101377.72;697599;28;46442;-67
2022/04/03 00:10:24;;;;;;;476.02;246.10;;;;;;;2.42;45.34;101375.16;698507;28;19150;-67
2022/04/03 00:10:45;;;;;;;477.05;247.95;;;;;;;2.44;45.30;101375.91;698390;28;23365;-67
2022/04/03 00:11:07;;;;;;;474.58;237.00;;;;;;;2.42;45.56;101377.00;698450;28;46406;-67
2022/04/03 00:11:29;;;;;;;476.35;245.52;;;;;;;2.43;45.49;101379.56;697357;28;46450;-68
2022/04/03 00:11:51;;;;;;;476.08;241.88;;;;;;;2.43;45.37;101376.88;696978;28;22205;-68
2022/04/03 00:12:12;;;;;;;475.65;237.18;;;;;;;2.44;45.44;101373.22;692013;28;69495;-66
2022/04/03 00:12:35;;;;;;;475.17;242.25;;;;;;;2.43;45.52;101379.56;693530;28;22255;-66
2022/04/03 00:12:56;;;;;;;478.05;253.80;;;;;;;2.44;45.53;101375.91;692900;28;45066;-66
2022/04/03 00:13:17;;;;;;;476.58;246.80;;;;;;;2.44;45.54;101377.72;693048;28;23492;-66
2022/04/03 00:13:38;;;;;;;478.50;254.50;;;;;;;2.45;45.42;101384.78;693916;28;22176;-66
2022/04/03 00:13:59;;;;;;;478.58;253.60;;;;;;;2.43;45.53;101376.00;693266;28;22465;-66
2022/04/03 00:14:21;;;;;;;481.30;262.75;;;;;;;2.44;45.61;101381.22;692981;28;46455;-66
2022/04/03 00:14:42;;;;;;;480.35;263.60;;;;;;;2.43;45.49;101376.88;691842;28;44521;-66
2022/04/03 00:15:04;;;;;;;479.65;263.20;;;;;;;2.43;45.53;101374.22;693393;28;22099;-66
2022/04/03 00:15:25;;;;;;;480.80;266.13;;;;;;;2.44;45.51;101372.38;692775;28;44383;-66
2022/04/03 00:15:46;;;;;;;478.75;257.08;;;;;;;2.44;45.50;101377.72;693799;28;21563;-66
2022/04/03 00:16:08;;;;;;;469.98;216.70;;;;;;;2.42;45.49;101377.84;693629;28;23465;-67
2022/04/03 00:16:32;;;;;;;477.75;246.75;;;;;;;2.42;45.66;101372.50;692379;28;45115;-67
2022/04/03 00:16:53;;;;;;;477.70;259.98;;;;;;;2.43;45.49;101378.69;690734;28;89087;-67
2022/04/03 00:17:15;;;;;;;476.10;257.20;;;;;;;2.43;45.66;101378.69;692577;28;46239;-66
2022/04/03 00:17:36;;;;;;;475.25;258.98;;;;;;;2.38;45.65;101371.00;693869;28;24168;-67
2022/04/03 00:17:58;;;;;;;476.73;264.80;;;;;;;2.42;45.31;101375.16;693182;28;22413;-67
2022/04/03 00:18:19;;;;;;;475.63;263.70;;;;;;;2.42;45.67;101379.66;691423;28;67466;-67
2022/04/03 00:18:41;;;;;;;474.75;268.08;;;;;;;2.41;45.65;101370.78;694011;28;23319;-67
2022/04/03 00:19:02;;;;;;;474.33;264.50;;;;;;;2.42;45.53;101379.66;693778;28;23477;-67
2022/04/03 00:19:23;;;;;;;473.52;267.98;;;;;;;2.41;45.46;101376.13;693819;28;22618;-67
2022/04/03 00:19:45;;;;;;;479.20;274.40;;;;;;;2.42;45.51;101380.50;693121;28;22371;-67
2022/04/03 00:20:08;;;;;;;480.23;276.63;;;;;;;2.42;45.60;101372.50;691717;28;69338;-67
2022/04/03 00:20:29;;;;;;;482.70;278.42;;;;;;;2.44;45.48;101377.72;691855;28;69674;-67
2022/04/03 00:20:51;;;;;;;481.08;273.85;;;;;;;2.45;45.48;101377.63;693665;28;21296;-67
2022/04/03 00:21:14;;;;;;;480.25;271.33;;;;;;;2.45;45.59;101374.09;693995;28;23761;-67
2022/04/03 00:21:35;;;;;;;479.48;267.52;;;;;;;2.45;45.50;101376.78;691022;28;70596;-67
2022/04/03 00:21:59;;;;;;;479.10;268.52;;;;;;;2.47;45.44;101377.50;693795;28;23410;-66
2022/04/03 00:22:22;;;;;;;479.35;267.95;;;;;;;2.48;45.47;101382.72;690380;28;113570;-66
2022/04/03 00:22:48;;;;;;;476.45;270.10;;;;;;;2.48;45.56;101377.41;692015;28;69465;-66
2022/04/03 00:23:09;;;;;;;476.95;271.50;;;;;;;2.50;45.64;101388.78;690357;28;115080;-66
2022/04/03 00:23:30;;;;;;;480.05;269.30;;;;;;;2.49;45.50;101376.44;692657;28;45205;-66
2022/04/03 00:23:51;;;;;;;477.60;261.73;;;;;;;2.50;45.40;101377.28;693858;28;22455;-66
2022/04/03 00:24:13;;;;;;;477.75;269.33;;;;;;;2.47;45.62;101370.34;693222;28;23531;-66
2022/04/03 00:24:36;;;;;;;474.83;272.33;;;;;;;2.50;45.81;101378.13;692450;28;67466;-67
2022/04/03 00:24:57;;;;;;;469.33;262.75;;;;;;;2.50;45.35;101380.81;693235;28;21302;-67
2022/04/03 00:25:20;;;;;;;472.75;259.50;;;;;;;2.49;45.50;101368.44;692339;28;47752;-67
2022/04/03 00:25:44;;;;;;;475.80;263.38;;;;;;;2.52;45.41;101376.22;694738;28;136781;-68
2022/04/03 00:26:06;;;;;;;480.10;268.97;;;;;;;2.51;45.45;101374.50;698853;28;22449;-68
2022/04/03 00:26:27;;;;;;;478.23;262.20;;;;;;;2.52;45.39;101378.91;697972;28;46367;-68
2022/04/03 00:26:48;;;;;;;479.98;265.50;;;;;;;2.53;45.38;101377.06;697097;28;23515;-68
2022/04/03 00:27:10;;;;;;;479.00;269.05;;;;;;;2.52;45.48;101383.34;699135;28;22471;-67
2022/04/03 00:27:32;;;;;;;479.45;270.08;;;;;;;2.52;45.52;101373.56;696557;28;70130;-68
2022/04/03 00:27:53;;;;;;;477.65;264.95;;;;;;;2.52;45.42;101380.69;696572;28;22371;-68
2022/04/03 00:28:15;;;;;;;476.13;258.15;;;;;;;2.49;45.50;101381.78;693413;28;20497;-68
2022/04/03 00:28:36;;;;;;;480.80;268.00;;;;;;;2.50;45.52;101377.28;693473;28;23523;-68
2022/04/03 00:28:58;;;;;;;481.85;272.23;;;;;;;2.46;45.59;101378.47;692640;28;47172;-68
2022/04/03 00:29:19;;;;;;;479.92;267.48;;;;;;;2.48;45.54;101379.22;692546;28;46332;-68
2022/04/03 00:29:41;;;;;;;481.95;272.05;;;;;;;2.48;45.47;101376.56;691651;28;45300;-67
2022/04/03 00:30:03;;;;;;;481.23;274.45;;;;;;;2.48;45.54;101374.72;693819;28;23451;-67
2022/04/03 00:30:24;;;;;;;478.80;274.00;;;;;;;2.49;45.63;101380.91;692955;28;45279;-68
2022/04/03 00:30:47;;;;;;;478.88;268.73;;;;;;;2.48;45.59;101382.72;693095;28;22388;-67
2022/04/03 00:31:08;;;;;;;480.38;267.13;;;;;;;2.49;45.59;101376.44;691872;28;69397;-67
2022/04/03 00:31:29;;;;;;;481.48;271.00;;;;;;;2.48;45.66;101377.41;692727;28;23488;-67
2022/04/03 00:31:51;;;;;;;460.75;263.40;;;;;;;2.47;45.69;101373.03;692443;28;23970;-67
2022/04/03 00:32:12;;;;;;;443.90;262.70;;;;;;;2.47;45.70;101374.84;693784;28;23705;-67
2022/04/03 00:32:34;;;;;;;450.23;271.15;;;;;;;2.47;45.61;101380.19;692452;28;46254;-67
2022/04/03 00:32:55;;;;;;;459.95;278.30;;;;;;;2.46;45.58;101381.13;692475;28;44365;-67
2022/04/03 00:33:16;;;;;;;469.35;268.15;;;;;;;2.43;45.70;101370.69;693582;28;21705;-66
2022/04/03 00:33:38;;;;;;;473.20;265.48;;;;;;;2.46;45.62;101370.47;692727;28;45241;-66
2022/04/03 00:34:00;;;;;;;471.42;269.40;;;;;;;2.45;45.79;101374.09;694349;28;6975;-67
2022/04/03 00:34:22;;;;;;;474.23;271.25;;;;;;;2.45;45.80;101374.09;692914;28;46298;-66
2022/04/03 00:34:43;;;;;;;472.52;267.92;;;;;;;2.46;45.91;101370.47;692673;28;44393;-66
2022/04/03 00:35:05;;;;;;;474.00;267.23;;;;;;;2.46;45.67;101374.00;693348;28;22721;-66
2022/04/03 00:35:27;;;;;;;475.60;266.42;;;;;;;2.45;45.54;101374.09;692937;28;41984;-66
2022/04/03 00:35:50;;;;;;;473.88;270.42;;;;;;;2.46;45.71;101371.34;692947;28;46325;-66
2022/04/03 00:36:11;;;;;;;474.67;271.27;;;;;;;2.46;45.35;101368.66;691728;28;69666;-66
2022/04/03 00:36:33;;;;;;;473.35;267.75;;;;;;;2.48;45.62;101366.72;693829;28;22152;-66
2022/04/03 00:36:54;;;;;;;478.70;268.67;;;;;;;2.45;45.51;101364.28;690701;28;66468;-66
2022/04/03 00:37:16;;;;;;;468.27;273.13;;;;;;;2.47;45.67;101367.69;698316;28;22393;-67
2022/04/03 00:37:38;;;;;;;472.70;276.10;;;;;;;2.48;45.76;101358.72;698142;28;33480;-67
2022/04/03 00:37:59;;;;;;;477.52;269.52;;;;;;;2.49;45.67;101373.78;698477;28;23437;-67
2022/04/03 00:38:21;;;;;;;473.40;272.50;;;;;;;2.49;45.67;101357.78;697980;28;45277;-67
2022/04/03 00:38:42;;;;;;;468.50;276.70;;;;;;;2.50;45.69;101364.81;698214;28;45238;-67
2022/04/03 00:39:03;;;;;;;469.55;279.05;;;;;;;2.49;45.70;101371.13;695494;28;21346;-67
2022/04/03 00:39:24;;;;;;;473.75;281.35;;;;;;;2.49;45.75;101373.78;693363;28;21278;-67
2022/04/03 00:39:46;;;;;;;475.17;278.83;;;;;;;2.48;45.84;101371.22;692386;28;22397;-67
2022/04/03 00:40:09;;;;;;;470.88;273.80;;;;;;;2.46;45.74;101371.34;691804;28;44360;-67
2022/04/03 00:40:30;;;;;;;470.95;267.92;;;;;;;2.47;45.76;101367.69;686874;28;67465;-67
2022/04/03 00:40:51;;;;;;;471.65;268.83;;;;;;;2.46;45.65;101371.34;688656;28;22429;-67
2022/04/03 00:41:22;;;;;;;472.13;275.52;;;;;;;2.48;45.93;101368.56;689781;28;61204;-67
2022/04/03 00:41:43;;;;;;;470.13;264.80;;;;;;;2.47;45.85;101373.03;687674;28;92284;-67
2022/04/03 00:42:05;;;;;;;465.77;252.07;;;;;;;2.47;45.92;101366.84;690754;28;22410;-67
2022/04/03 00:42:26;;;;;;;468.67;265.50;;;;;;;2.47;45.90;101372.19;692320;28;44375;-67
2022/04/03 00:42:48;;;;;;;469.67;272.10;;;;;;;2.48;45.76;101369.41;693674;28;22516;-67
2022/04/03 00:43:15;;;;;;;467.15;259.98;;;;;;;2.50;45.82;101367.47;692642;28;46441;-67
2022/04/03 00:43:36;;;;;;;472.60;274.05;;;;;;;2.51;45.76;101363.84;689297;28;60704;-67
2022/04/03 00:43:58;;;;;;;471.88;273.27;;;;;;;2.51;45.76;101371.84;690863;28;21520;-67
2022/04/03 00:44:20;;;;;;;474.05;275.80;;;;;;;2.55;45.63;101367.13;690123;28;44368;-67
2022/04/03 00:44:42;;;;;;;474.70;276.35;;;;;;;2.55;45.60;101375.13;690341;28;42886;-67
2022/04/03 00:45:04;;;;;;;477.60;279.27;;;;;;;2.55;45.67;101372.47;686137;28;46337;-67
2022/04/03 00:45:26;;;;;;;474.15;278.60;;;;;;;2.56;45.61;101373.34;685682;28;70157;-67
2022/04/03 00:45:49;;;;;;;474.20;270.77;;;;;;;2.55;45.61;101366.28;690454;28;21652;-67
2022/04/03 00:46:10;;;;;;;471.10;272.15;;;;;;;2.54;45.68;101376.13;689411;28;67464;-67
2022/04/03 00:46:33;;;;;;;463.98;263.98;;;;;;;2.53;45.72;101359.25;689436;28;22219;-67
2022/04/03 00:46:55;;;;;;;457.65;260.73;;;;;;;2.53;45.62;101369.91;688476;28;87871;-67
2022/04/03 00:47:16;;;;;;;464.10;269.92;;;;;;;2.52;45.67;101378.03;693025;28;44441;-67
2022/04/03 00:47:40;;;;;;;465.92;263.13;;;;;;;2.50;45.81;101366.63;692470;28;45262;-67
2022/04/03 00:48:01;;;;;;;466.58;268.20;;;;;;;2.50;45.72;101369.28;692232;28;69629;-67
2022/04/03 00:48:23;;;;;;;465.95;264.95;;;;;;;2.50;45.69;101367.47;694029;28;21525;-67
2022/04/03 00:48:46;;;;;;;460.58;268.45;;;;;;;2.50;45.90;101372.81;692026;28;45126;-66
2022/04/03 00:49:08;;;;;;;457.25;271.50;;;;;;;2.47;45.64;101362.34;691034;28;90774;-66
2022/04/03 00:49:30;;;;;;;458.23;269.42;;;;;;;2.47;45.72;101365.03;692074;28;44440;-66
2022/04/03 00:49:52;;;;;;;466.30;276.65;;;;;;;2.43;45.78;101360.00;692894;28;46381;-66
2022/04/03 00:50:13;;;;;;;466.45;276.77;;;;;;;2.44;45.73;101367.91;694002;28;22384;-66
2022/04/03 00:50:34;;;;;;;464.48;266.83;;;;;;;2.47;45.73;101374.84;693652;28;1920;-66
2022/04/03 00:50:56;;;;;;;468.33;273.10;;;;;;;2.47;45.89;101374.84;693235;28;22552;-66
2022/04/03 00:51:18;;;;;;;469.80;277.95;;;;;;;2.45;45.78;101374.09;692267;28;45187;-66
2022/04/03 00:51:39;;;;;;;471.63;273.48;;;;;;;2.43;45.96;101371.56;691892;28;46326;-66
2022/04/03 00:52:01;;;;;;;476.27;275.67;;;;;;;2.44;45.80;101375.91;693920;28;22339;-66
2022/04/03 00:52:24;;;;;;;471.42;256.63;;;;;;;2.43;45.96;101370.69;691679;28;69929;-66
2022/04/03 00:52:45;;;;;;;462.83;262.00;;;;;;;2.41;45.83;101373.44;691734;28;69404;-66
2022/04/03 00:53:07;;;;;;;466.60;263.65;;;;;;;2.42;46.02;101374.31;693791;28;22417;-66
2022/04/03 00:53:29;;;;;;;471.90;253.80;;;;;;;2.41;46.03;101367.28;693183;28;21505;-67
2022/04/03 00:53:50;;;;;;;461.65;235.57;;;;;;;2.43;46.03;101376.00;692307;28;44177;-66
2022/04/03 00:54:12;;;;;;;447.38;206.07;;;;;;;2.43;45.83;101368.88;692960;28;46299;-67
2022/04/03 00:54:33;;;;;;;446.45;214.15;;;;;;;2.43;45.86;101368.00;693595;28;21221;-67
2022/04/03 00:54:55;;;;;;;448.85;233.75;;;;;;;2.45;45.89;101369.63;694506;28;1452;-67
2022/04/03 00:55:16;;;;;;;454.38;250.05;;;;;;;2.46;45.85;101360.66;692709;28;46351;-67
2022/04/03 00:55:40;;;;;;;451.23;258.25;;;;;;;2.51;45.75;101368.34;692645;28;46379;-66
2022/04/03 00:56:01;;;;;;;444.55;256.25;;;;;;;2.50;45.85;101369.28;691154;28;84299;-67
2022/04/03 00:56:23;;;;;;;442.55;261.40;;;;;;;2.51;45.76;101366.50;692891;28;22096;-68
2022/04/03 00:56:45;;;;;;;443.33;264.90;;;;;;;2.50;45.95;101374.63;692020;28;45003;-64
2022/04/03 00:57:07;;;;;;;441.48;264.88;;;;;;;2.51;45.87;101365.69;693685;28;22411;-67
2022/04/03 00:57:28;;;;;;;439.65;268.75;;;;;;;2.50;45.84;101362.13;692090;28;45347;-66
2022/04/03 00:57:51;;;;;;;436.75;266.23;;;;;;;2.51;45.89;101371.84;692473;28;46245;-67
2022/04/03 00:58:13;;;;;;;432.58;255.20;;;;;;;2.48;45.77;101371.22;692640;28;47469;-67
2022/04/03 00:58:35;;;;;;;433.08;254.70;;;;;;;2.47;45.73;101362.34;694099;28;8771;-67
2022/04/03 00:58:57;;;;;;;432.88;253.48;;;;;;;2.48;45.78;101372.06;691864;28;69413;-67
2022/04/03 00:59:19;;;;;;;431.42;250.70;;;;;;;2.48;45.77;101368.56;693556;28;22403;-67
2022/04/03 00:59:41;;;;;;;434.55;258.17;;;;;;;2.47;45.81;101361.50;692612;28;45121;-67
2022/04/03 01:00:04;;;;;;;432.88;253.68;;;;;;;2.53;45.87;101371.75;691892;28;69624;-67
2022/04/03 01:00:25;;;;;;;435.17;254.75;;;;;;;2.55;45.66;101366.28;691335;28;67487;-67
2022/04/03 01:00:46;;;;;;;436.77;255.52;;;;;;;2.57;45.63;101365.25;693324;28;21511;-67
2022/04/03 01:01:08;;;;;;;434.80;254.05;;;;;;;2.58;45.63;101358.91;693208;28;23020;-67
2022/04/03 01:01:30;;;;;;;432.48;258.38;;;;;;;2.61;45.44;101364.03;691596;28;46267;-67
2022/04/03 01:01:51;;;;;;;430.92;257.67;;;;;;;2.63;45.61;101358.59;693087;28;22331;-67
2022/04/03 01:02:12;;;;;;;433.40;257.08;;;;;;;2.65;45.33;101364.66;693403;28;23420;-67
2022/04/03 01:02:34;;;;;;;434.50;257.98;;;;;;;2.64;45.35;101360.31;693739;28;22389;-67
2022/04/03 01:02:56;;;;;;;436.20;262.52;;;;;;;2.65;45.39;101362.00;691543;28;92235;-67
2022/04/03 01:03:17;;;;;;;433.50;258.33;;;;;;;2.66;45.35;101363.72;692992;28;18408;-67
2022/04/03 01:03:38;;;;;;;435.58;264.63;;;;;;;2.62;45.61;101356.91;693338;28;22395;-67
2022/04/03 01:04:00;;;;;;;437.70;264.45;;;;;;;2.65;45.41;101360.19;693096;28;21524;-68
2022/04/03 01:04:22;;;;;;;429.63;241.95;;;;;;;2.63;45.58;101358.59;693438;28;23447;-67
2022/04/03 01:04:43;;;;;;;424.15;229.02;;;;;;;2.61;45.63;101360.53;692801;28;46541;-67
2022/04/03 01:05:08;;;;;;;427.33;223.00;;;;;;;2.59;45.69;101365.97;691838;28;2235;-67
2022/04/03 01:05:29;;;;;;;426.73;214.80;;;;;;;2.58;45.71;101355.41;689935;28;115076;-68
2022/04/03 01:05:50;;;;;;;431.10;227.27;;;;;;;2.58;45.69;101368.75;693048;28;22437;-68
2022/04/03 01:06:12;;;;;;;438.95;241.40;;;;;;;2.57;45.65;101375.03;693603;28;21438;-68
2022/04/03 01:06:33;;;;;;;452.20;240.80;;;;;;;2.55;45.77;101375.13;691764;28;46472;-68
2022/04/03 01:06:57;;;;;;;471.90;235.70;;;;;;;2.55;45.75;101358.31;692959;28;44365;-68
2022/04/03 01:07:18;;;;;;;468.95;223.10;;;;;;;2.53;45.59;101367.25;692605;28;45230;-68
2022/04/03 01:07:42;;;;;;;475.30;245.38;;;;;;;2.55;45.76;101368.97;692228;28;44387;-68
2022/04/03 01:08:03;;;;;;;476.60;243.20;;;;;;;2.52;45.86;101362.91;691857;28;68235;-68
2022/04/03 01:08:25;;;;;;;477.35;246.63;;;;;;;2.52;45.90;101372.69;692468;28;44293;-68
2022/04/03 01:08:46;;;;;;;477.83;251.57;;;;;;;2.50;45.88;101364.81;693686;28;21546;-67
2022/04/03 01:09:08;;;;;;;474.13;241.40;;;;;;;2.50;45.78;101371.97;693738;28;23418;-67
2022/04/03 01:09:30;;;;;;;476.80;244.45;;;;;;;2.48;45.81;101366.72;690502;28;90736;-67
2022/04/03 01:09:52;;;;;;;481.38;256.60;;;;;;;2.47;45.77;101369.50;693417;28;21548;-67
2022/04/03 01:10:13;;;;;;;476.95;244.10;;;;;;;2.47;46.07;101370.34;693534;28;2699;-67
2022/04/03 01:10:35;;;;;;;474.38;235.05;;;;;;;2.46;46.13;101365.13;693431;28;21547;-67
2022/04/03 01:10:56;;;;;;;478.25;250.38;;;;;;;2.45;46.14;101363.44;692499;28;47187;-67
2022/04/03 01:11:21;;;;;;;474.80;242.95;;;;;;;2.43;46.05;101362.69;693197;28;22396;-67
2022/04/03 01:11:45;;;;;;;477.23;252.63;;;;;;;2.45;46.08;101366.09;689478;28;115083;-67
2022/04/03 01:12:06;;;;;;;478.35;257.00;;;;;;;2.45;45.92;101363.44;691395;28;92176;-67
2022/04/03 01:12:28;;;;;;;480.40;261.63;;;;;;;2.44;46.05;101367.06;692876;28;22398;-67
2022/04/03 01:12:49;;;;;;;479.67;259.90;;;;;;;2.43;46.00;101368.88;692775;28;46315;-67
2022/04/03 01:13:11;;;;;;;475.98;245.15;;;;;;;2.43;45.88;101360.00;693199;28;21528;-67
2022/04/03 01:13:32;;;;;;;475.80;246.70;;;;;;;2.44;46.00;101365.22;692630;28;46322;-67
2022/04/03 01:13:54;;;;;;;480.27;262.80;;;;;;;2.45;46.01;101364.28;693322;28;22380;-67
2022/04/03 01:14:29;;;;;;;481.10;263.52;;;;;;;2.43;46.12;101358.22;692240;28;46379;-67
2022/04/03 01:14:52;;;;;;;478.20;254.50;;;;;;;2.46;46.05;101357.13;689318;28;135978;-66
2022/04/03 01:15:14;;;;;;;478.67;255.52;;;;;;;2.40;46.05;101357.56;692161;28;69417;-66
2022/04/03 01:15:35;;;;;;;475.02;243.00;;;;;;;2.43;46.06;101360.88;694461;28;1630;-66
2022/04/03 01:15:59;;;;;;;474.67;241.30;;;;;;;2.43;46.15;101362.69;693279;28;22775;-66
2022/04/03 01:16:21;;;;;;;476.10;247.02;;;;;;;2.43;46.12;101365.34;690899;28;92288;-67
2022/04/03 01:16:42;;;;;;;475.75;237.98;;;;;;;2.41;45.98;101356.59;690725;28;69278;-66
2022/04/03 01:17:05;;;;;;;478.17;248.80;;;;;;;2.39;46.07;101348.72;693533;28;21522;-66
2022/04/03 01:17:26;;;;;;;476.70;243.82;;;;;;;2.39;46.03;101354.06;691681;28;46294;-66
2022/04/03 01:17:47;;;;;;;480.13;261.65;;;;;;;2.36;46.14;101359.59;693197;28;22395;-66
2022/04/03 01:18:09;;;;;;;478.17;252.60;;;;;;;2.33;46.39;101358.00;693219;28;21545;-67
2022/04/03 01:18:31;;;;;;;482.00;272.42;;;;;;;2.30;46.17;101358.25;692332;28;70904;-67
2022/04/03 01:18:52;;;;;;;481.52;270.42;;;;;;;2.26;46.36;101363.91;693321;28;23480;-66
2022/04/03 01:19:13;;;;;;;480.95;266.13;;;;;;;2.25;46.47;101351.53;693492;28;22468;-66
2022/04/03 01:19:35;;;;;;;481.70;263.20;;;;;;;2.20;46.62;101351.84;693307;28;23448;-66
2022/04/03 01:19:56;;;;;;;481.25;261.58;;;;;;;2.18;46.70;101359.09;692423;28;45301;-66
2022/04/03 01:20:18;;;;;;;475.42;248.30;;;;;;;2.16;46.68;101363.66;693429;28;22380;-66
2022/04/03 01:20:40;;;;;;;476.30;248.05;;;;;;;2.14;46.65;101363.75;692964;28;45387;-66
2022/04/03 01:21:02;;;;;;;480.88;265.00;;;;;;;2.12;46.83;101364.84;692889;28;46578;-66
2022/04/03 01:21:23;;;;;;;475.92;245.88;;;;;;;2.10;46.87;101364.09;692934;28;47662;-67
2022/04/03 01:21:46;;;;;;;472.65;231.55;;;;;;;2.07;46.89;101366.97;692371;28;36960;-66
2022/04/03 01:22:07;;;;;;;477.20;248.25;;;;;;;2.06;47.06;101371.44;693685;28;23473;-67
2022/04/03 01:22:29;;;;;;;479.50;255.18;;;;;;;2.06;47.12;101365.28;693662;28;21654;-66
2022/04/03 01:22:51;;;;;;;477.67;249.73;;;;;;;2.05;47.18;101364.41;692864;28;44378;-67
2022/04/03 01:23:12;;;;;;;479.73;254.38;;;;;;;2.02;47.06;101361.94;691659;28;69349;-67
2022/04/03 01:23:34;;;;;;;478.23;249.50;;;;;;;2.05;47.16;101364.41;693337;28;21477;-67
2022/04/03 01:23:55;;;;;;;477.80;251.38;;;;;;;2.07;47.04;101369.63;692983;28;46543;-67
2022/04/03 01:24:17;;;;;;;477.80;248.27;;;;;;;2.08;47.23;101358.03;693628;28;23368;-67
2022/04/03 01:24:42;;;;;;;478.92;254.32;;;;;;;2.08;47.08;101358.03;692376;28;47442;-66
2022/04/03 01:25:08;;;;;;;478.17;255.65;;;;;;;2.09;47.21;101363.25;690869;28;92351;-66
2022/04/03 01:25:30;;;;;;;478.85;254.70;;;;;;;2.11;46.95;101369.31;689812;28;135836;-66
2022/04/03 01:25:51;;;;;;;478.52;257.45;;;;;;;2.11;47.05;101369.31;691822;28;67495;-66
2022/04/03 01:26:13;;;;;;;479.02;257.40;;;;;;;2.12;47.22;101364.84;693492;28;23648;-67
2022/04/03 01:26:39;;;;;;;480.73;259.15;;;;;;;2.11;47.05;101368.47;691676;28;113116;-66
2022/04/03 01:27:00;;;;;;;480.85;262.20;;;;;;;2.12;46.92;101371.03;695268;28;46231;-66
2022/04/03 01:27:21;;;;;;;481.75;266.27;;;;;;;2.13;47.03;101374.53;695439;28;1696;-66
2022/04/03 01:27:42;;;;;;;481.95;264.83;;;;;;;2.11;47.04;101374.63;695216;28;44390;-66
2022/04/03 01:28:05;;;;;;;479.63;259.13;;;;;;;2.10;47.12;101366.75;695777;28;22386;-66
2022/04/03 01:28:26;;;;;;;480.17;261.63;;;;;;;2.08;47.22;101368.69;694179;28;45266;-66
2022/04/03 01:28:47;;;;;;;482.30;269.00;;;;;;;2.06;47.44;101367.94;693628;28;21506;-66
2022/04/03 01:29:09;;;;;;;482.63;265.90;;;;;;;2.07;47.22;101373.16;693143;28;22466;-66
2022/04/03 01:29:30;;;;;;;481.88;263.95;;;;;;;2.08;47.35;101374.84;692387;28;46502;-66
2022/04/03 01:29:52;;;;;;;482.88;263.98;;;;;;;2.08;47.25;101384.66;693351;28;22246;-66
2022/04/03 01:30:13;;;;;;;479.73;259.38;;;;;;;2.08;47.28;101368.69;692856;28;46447;-66
2022/04/03 01:30:42;;;;;;;479.70;261.55;;;;;;;2.08;47.41;101372.19;691961;28;61643;-66
2022/04/03 01:31:03;;;;;;;482.00;265.58;;;;;;;2.09;47.32;101379.22;692444;28;45253;-66
2022/04/03 01:31:24;;;;;;;480.60;261.80;;;;;;;2.10;47.19;101375.63;691678;28;46129;-66
2022/04/03 01:31:46;;;;;;;481.65;264.63;;;;;;;2.08;47.34;101374.84;696087;28;4316;-66
2022/04/03 01:32:09;;;;;;;479.63;261.25;;;;;;;2.05;47.30;101375.06;695757;28;45241;-66
2022/04/03 01:32:32;;;;;;;479.73;261.50;;;;;;;2.07;47.43;101386.50;693893;28;69538;-66
2022/04/03 01:32:53;;;;;;;479.45;259.23;;;;;;;2.06;47.51;101374.13;694982;28;45249;-66
2022/04/03 01:33:14;;;;;;;480.15;262.00;;;;;;;2.05;47.44;101385.72;695032;28;21103;-66
2022/04/03 01:33:35;;;;;;;479.02;259.83;;;;;;;2.04;47.60;101375.16;694460;28;45249;-66
2022/04/03 01:33:57;;;;;;;479.30;259.48;;;;;;;2.04;47.46;101373.38;692381;28;23390;-66
2022/04/03 01:34:19;;;;;;;479.23;257.58;;;;;;;2.03;47.44;101381.47;692696;28;46226;-66
2022/04/03 01:34:41;;;;;;;480.40;260.95;;;;;;;2.01;47.51;101376.25;692776;28;47065;-66
2022/04/03 01:35:02;;;;;;;480.98;258.90;;;;;;;2.03;47.49;101381.47;693704;28;22413;-66
2022/04/03 01:35:23;;;;;;;480.67;260.05;;;;;;;2.02;47.46;101380.59;692736;28;46219;-66
2022/04/03 01:35:47;;;;;;;480.27;262.42;;;;;;;2.02;47.42;101387.75;692555;28;45030;-66
2022/04/03 01:36:08;;;;;;;480.00;258.48;;;;;;;2.02;47.57;101375.28;692775;28;45246;-66
2022/04/03 01:36:29;;;;;;;478.55;253.73;;;;;;;2.04;47.59;101383.16;693518;28;22469;-67
2022/04/03 01:36:50;;;;;;;480.08;258.80;;;;;;;2.03;47.38;101382.31;691926;28;45204;-67
2022/04/03 01:37:12;;;;;;;480.85;261.77;;;;;;;2.08;47.47;101384.66;693452;28;1095;-67
2022/04/03 01:37:33;;;;;;;478.80;253.80;;;;;;;2.09;47.28;101384.56;692710;28;46263;-67
2022/04/03 01:37:54;;;;;;;481.75;263.42;;;;;;;2.11;47.26;101379.13;693189;28;23529;-67
2022/04/03 01:38:15;;;;;;;482.15;266.10;;;;;;;2.11;47.24;101381.78;693566;28;23438;-67
2022/04/03 01:38:37;;;;;;;481.90;267.05;;;;;;;2.11;47.38;101379.97;693566;28;22394;-66
2022/04/03 01:38:58;;;;;;;479.85;260.42;;;;;;;2.14;47.41;101389.56;692916;28;46288;-67
2022/04/03 01:39:19;;;;;;;480.98;261.60;;;;;;;2.14;47.41;101389.56;693127;28;23466;-67
2022/04/03 01:39:40;;;;;;;482.73;260.60;;;;;;;2.12;47.36;101383.50;692974;28;23736;-66